createdAt,value
2019-04-03T00:00:24.684Z,19.27
2019-04-03T00:02:53.209Z,18.82
2019-04-03T00:05:21.773Z,19.20
2019-04-03T00:07:51.745Z,19.75
2019-04-03T00:10:20.345Z,19.07
2019-04-03T00:12:49.120Z,19.40
2019-04-03T00:15:17.730Z,19.60
2019-04-03T00:17:46.386Z,20.08
2019-04-03T00:20:15.074Z,20.55
2019-04-03T00:22:46.126Z,20.80
2019-04-03T00:25:14.290Z,21.12
2019-04-03T00:27:42.835Z,21.45
2019-04-03T00:30:11.937Z,20.02
2019-04-03T00:32:40.616Z,20.15
2019-04-03T00:35:10.036Z,20.60
2019-04-03T00:37:39.150Z,20.97
2019-04-03T00:40:08.188Z,20.97
2019-04-03T00:42:36.756Z,21.45
2019-04-03T00:45:07.326Z,21.07
2019-04-03T00:47:35.843Z,21.87
2019-04-03T00:50:06.258Z,21.27
2019-04-03T00:52:35.372Z,21.97
2019-04-03T00:55:04.405Z,22.30
2019-04-03T00:57:32.924Z,22.25
2019-04-03T01:00:01.901Z,21.60
2019-04-03T01:02:30.572Z,22.93
2019-04-03T01:04:59.177Z,22.60
2019-04-03T01:07:29.293Z,22.30
2019-04-03T01:09:59.540Z,24.35
2019-04-03T01:12:30.384Z,24.15
2019-04-03T01:15:01.085Z,23.42
2019-04-03T01:17:29.277Z,23.77
2019-04-03T01:19:57.975Z,23.40
2019-04-03T01:22:26.923Z,23.83
2019-04-03T01:24:55.423Z,22.73
2019-04-03T01:27:24.136Z,23.42
2019-04-03T01:29:52.684Z,22.87
2019-04-03T01:32:21.192Z,23.20
2019-04-03T01:34:49.709Z,22.70
2019-04-03T01:37:19.357Z,22.82
2019-04-03T01:39:49.026Z,22.25
2019-04-03T01:42:18.303Z,22.70
2019-04-03T01:44:46.863Z,22.20
2019-04-03T01:47:15.550Z,21.90
2019-04-03T01:49:44.155Z,21.37
2019-04-03T01:52:12.712Z,21.45
2019-04-03T01:54:41.352Z,22.05
2019-04-03T01:57:09.986Z,23.12
2019-04-03T01:59:38.929Z,22.77
2019-04-03T02:02:08.510Z,22.50
2019-04-03T02:04:37.486Z,23.47
2019-04-03T02:07:06.344Z,22.42
2019-04-03T02:09:34.874Z,23.30
2019-04-03T02:12:03.570Z,24.05
2019-04-03T02:14:32.379Z,24.00
2019-04-03T02:17:00.875Z,26.30
2019-04-03T02:19:29.482Z,24.10
2019-04-03T02:21:59.131Z,25.15
2019-04-03T02:24:28.038Z,24.60
2019-04-03T02:26:56.633Z,25.37
2019-04-03T02:29:25.556Z,25.65
2019-04-03T02:31:54.056Z,23.62
2019-04-03T02:34:22.635Z,25.17
2019-04-03T02:36:51.588Z,25.27
2019-04-03T02:39:20.086Z,25.08
2019-04-03T02:41:48.704Z,26.33
2019-04-03T02:44:19.133Z,25.27
2019-04-03T02:46:47.899Z,25.80
2019-04-03T02:49:16.489Z,25.97
2019-04-03T02:51:47.231Z,25.52
2019-04-03T02:54:34.679Z,28.23
2019-04-03T02:57:00.964Z,26.05
2019-04-03T02:59:29.739Z,26.23
2019-04-03T03:01:58.605Z,24.70
2019-04-03T03:04:27.230Z,26.30
2019-04-03T03:06:57.041Z,24.90
2019-04-03T03:09:26.486Z,24.57
2019-04-03T03:11:56.992Z,26.25
2019-04-03T03:14:26.453Z,25.88
2019-04-03T03:16:55.606Z,25.45
2019-04-03T03:19:24.477Z,27.10
2019-04-03T03:21:56.043Z,25.55
2019-04-03T03:24:28.453Z,25.85
2019-04-03T03:26:56.071Z,26.40
2019-04-03T03:29:26.954Z,25.77
2019-04-03T03:32:13.203Z,27.25
2019-04-03T03:34:47.601Z,27.05
2019-04-03T03:37:03.138Z,27.67
2019-04-03T03:39:32.578Z,26.52
2019-04-03T03:42:01.875Z,27.05
2019-04-03T03:44:31.182Z,27.32
2019-04-03T03:47:02.835Z,28.27
2019-04-03T03:49:31.852Z,28.02
2019-04-03T03:52:04.009Z,26.95
2019-04-03T03:54:31.844Z,25.72
2019-04-03T03:57:04.330Z,27.70
2019-04-03T03:59:31.842Z,28.42
2019-04-03T04:02:03.511Z,26.73
2019-04-03T04:04:30.950Z,27.37
2019-04-03T04:07:02.188Z,27.35
2019-04-03T04:09:31.027Z,26.73
2019-04-03T04:11:59.919Z,26.65
2019-04-03T04:14:28.688Z,27.07
2019-04-03T04:16:57.930Z,27.55
2019-04-03T04:19:30.520Z,28.38
2019-04-03T04:21:56.933Z,27.98
2019-04-03T04:24:28.000Z,28.12
2019-04-03T04:26:57.042Z,27.37
2019-04-03T04:29:25.557Z,27.98
2019-04-03T04:31:54.750Z,27.55
2019-04-03T04:34:23.642Z,27.98
2019-04-03T04:36:53.304Z,28.10
2019-04-03T04:39:22.729Z,28.02
2019-04-03T04:41:51.470Z,28.52
2019-04-03T04:44:20.211Z,27.80
2019-04-03T04:46:48.773Z,27.48
2019-04-03T04:49:17.270Z,26.77
2019-04-03T04:51:46.050Z,26.45
2019-04-03T04:54:15.029Z,26.73
2019-04-03T04:56:43.560Z,26.05
2019-04-03T04:59:13.528Z,25.57
2019-04-03T05:01:42.522Z,27.55
2019-04-03T05:04:11.367Z,27.17
2019-04-03T05:06:39.896Z,28.05
2019-04-03T05:09:08.589Z,27.98
2019-04-03T05:11:39.099Z,27.67
2019-04-03T05:14:07.366Z,28.65
2019-04-03T05:16:36.764Z,28.55
2019-04-03T05:19:10.662Z,27.40
2019-04-03T05:21:35.685Z,27.85
2019-04-03T05:24:11.383Z,27.25
2019-04-03T05:26:35.217Z,28.05
2019-04-03T05:29:04.712Z,28.50
2019-04-03T05:31:33.820Z,27.77
2019-04-03T05:34:02.591Z,27.52
2019-04-03T05:36:31.114Z,27.95
2019-04-03T05:39:02.604Z,26.93
2019-04-03T05:41:30.514Z,27.07
2019-04-03T05:44:00.085Z,27.15
2019-04-03T05:46:29.462Z,27.07
2019-04-03T05:48:58.317Z,26.45
2019-04-03T05:51:29.138Z,26.52
2019-04-03T05:53:57.677Z,27.00
2019-04-03T05:56:26.442Z,26.02
2019-04-03T05:58:57.251Z,25.97
2019-04-03T06:01:25.530Z,25.62
2019-04-03T06:03:54.279Z,25.27
2019-04-03T06:06:22.805Z,25.62
2019-04-03T06:08:51.985Z,25.48
2019-04-03T06:11:20.909Z,24.57
2019-04-03T06:13:50.003Z,25.37
2019-04-03T06:16:18.718Z,25.02
2019-04-03T06:18:59.132Z,24.65
2019-04-03T06:21:28.605Z,24.47
2019-04-03T06:23:57.241Z,24.32
2019-04-03T06:26:25.753Z,25.43
2019-04-03T06:28:54.693Z,23.83
2019-04-03T06:31:24.350Z,24.32
2019-04-03T06:33:53.594Z,24.87
2019-04-03T06:36:22.143Z,24.90
2019-04-03T06:38:50.666Z,24.32
2019-04-03T06:41:19.471Z,23.15
2019-04-03T06:43:50.155Z,23.77
2019-04-03T06:46:18.410Z,24.45
2019-04-03T06:48:47.098Z,23.75
2019-04-03T06:51:16.759Z,23.65
2019-04-03T06:53:48.160Z,22.45
2019-04-03T06:56:16.686Z,23.35
2019-04-03T06:58:45.546Z,23.57
2019-04-03T07:01:14.215Z,22.58
2019-04-03T07:03:44.180Z,23.73
2019-04-03T07:06:13.710Z,22.40
2019-04-03T07:08:42.219Z,22.50
2019-04-03T07:11:22.404Z,22.77
2019-04-03T07:13:40.992Z,22.70
2019-04-03T07:16:09.510Z,23.27
2019-04-03T07:18:38.078Z,23.57
2019-04-03T07:21:06.631Z,21.48
2019-04-03T07:23:35.138Z,22.05
2019-04-03T07:26:05.173Z,22.62
2019-04-03T07:28:34.134Z,22.62
2019-04-03T07:31:02.678Z,20.85
2019-04-03T07:33:31.223Z,22.22
2019-04-03T07:35:59.894Z,22.25
2019-04-03T07:38:28.868Z,22.02
2019-04-03T07:40:57.618Z,22.87
2019-04-03T07:43:26.929Z,21.37
2019-04-03T07:45:56.165Z,21.27
2019-04-03T07:48:25.048Z,20.40
2019-04-03T07:50:54.017Z,21.60
2019-04-03T07:53:23.077Z,20.75
2019-04-03T07:55:51.950Z,19.87
2019-04-03T07:58:20.946Z,19.45
2019-04-03T08:00:49.661Z,20.75
2019-04-03T08:03:20.368Z,19.65
2019-04-03T08:05:48.798Z,18.32
2019-04-03T08:08:17.773Z,19.20
2019-04-03T08:10:52.878Z,18.60
2019-04-03T08:13:23.299Z,19.07
2019-04-03T08:15:52.349Z,19.90
2019-04-03T08:18:21.900Z,21.05
2019-04-03T08:20:51.059Z,21.57
2019-04-03T08:23:19.883Z,20.68
2019-04-03T08:25:49.207Z,20.50
2019-04-03T08:28:18.194Z,19.12
2019-04-03T08:30:46.809Z,20.55
2019-04-03T08:33:19.797Z,20.00
2019-04-03T08:35:48.157Z,20.20
2019-04-03T08:38:16.757Z,20.45
2019-04-03T08:40:45.348Z,20.37
2019-04-03T08:43:15.592Z,20.72
2019-04-03T08:45:44.529Z,20.72
2019-04-03T08:48:13.081Z,20.10
2019-04-03T08:50:41.891Z,20.70
2019-04-03T08:53:10.876Z,20.27
2019-04-03T08:55:39.698Z,20.77
2019-04-03T08:58:08.356Z,19.45
2019-04-03T09:00:37.144Z,19.55
2019-04-03T09:03:05.926Z,19.40
2019-04-03T09:05:34.608Z,20.48
2019-04-03T09:08:03.211Z,19.15
2019-04-03T09:10:36.363Z,17.55
2019-04-03T09:13:15.455Z,17.67
2019-04-03T09:15:32.945Z,18.35
2019-04-03T09:18:01.762Z,17.50
2019-04-03T09:20:30.308Z,17.10
2019-04-03T09:22:58.856Z,17.05
2019-04-03T09:25:27.595Z,18.20
2019-04-03T09:27:56.315Z,17.73
2019-04-03T09:30:25.990Z,17.80
2019-04-03T09:32:59.007Z,17.82
2019-04-03T09:35:26.132Z,18.40
2019-04-03T09:37:54.774Z,18.15
2019-04-03T09:40:23.706Z,18.30
2019-04-03T09:42:52.289Z,17.85
2019-04-03T09:45:20.811Z,18.57
2019-04-03T09:47:50.636Z,18.82
2019-04-03T09:50:22.320Z,18.52
2019-04-03T09:52:50.760Z,17.52
2019-04-03T09:55:19.750Z,18.23
2019-04-03T09:57:48.348Z,18.73
2019-04-03T10:00:17.486Z,16.70
2019-04-03T10:02:45.989Z,16.73
2019-04-03T10:05:16.313Z,17.07
2019-04-03T10:07:45.353Z,17.60
2019-04-03T10:10:16.533Z,18.73
2019-04-03T10:12:47.325Z,18.70
2019-04-03T10:15:18.150Z,19.52
2019-04-03T10:17:45.734Z,19.23
2019-04-03T10:20:17.297Z,20.10
2019-04-03T10:22:45.336Z,21.47
2019-04-03T10:25:14.358Z,21.65
2019-04-03T10:27:43.706Z,21.57
2019-04-03T10:30:15.741Z,21.97
2019-04-03T10:32:44.636Z,22.22
2019-04-03T10:35:13.697Z,22.30
2019-04-03T10:37:42.209Z,22.77
2019-04-03T10:40:12.293Z,24.15
2019-04-03T10:42:42.394Z,23.47
2019-04-03T10:45:11.683Z,23.35
2019-04-03T10:47:43.367Z,23.92
2019-04-03T10:50:12.894Z,23.67
2019-04-03T10:52:44.054Z,23.38
2019-04-03T10:55:11.971Z,22.15
2019-04-03T10:57:42.371Z,22.37
2019-04-03T11:00:13.364Z,23.42
2019-04-03T11:02:42.035Z,23.15
2019-04-03T11:05:12.927Z,20.40
2019-04-03T11:07:41.776Z,20.80
2019-04-03T11:10:12.456Z,18.50
2019-04-03T11:12:41.465Z,18.32
2019-04-03T11:15:11.692Z,18.23
2019-04-03T11:17:43.113Z,17.50
2019-04-03T11:20:13.442Z,17.92
2019-04-03T11:25:15.327Z,15.80
2019-04-03T11:27:45.037Z,16.00
2019-04-03T11:30:18.239Z,15.15
2019-04-03T11:30:55.128Z,17.12
2019-04-03T11:32:46.515Z,14.83
2019-04-03T11:35:15.600Z,14.25
2019-04-03T11:37:44.181Z,13.78
2019-04-03T11:40:14.097Z,13.05
2019-04-03T11:42:42.926Z,13.38
2019-04-03T11:45:12.214Z,12.07
2019-04-03T11:47:40.867Z,13.30
2019-04-03T11:50:11.088Z,12.82
2019-04-03T11:52:39.984Z,12.73
2019-04-03T11:55:10.895Z,13.08
2019-04-03T11:57:39.909Z,12.50
2019-04-03T12:00:18.871Z,12.65
2019-04-03T12:02:47.918Z,12.90
2019-04-03T12:05:20.745Z,12.15
2019-04-03T12:07:48.924Z,11.20
2019-04-03T12:10:17.950Z,12.20
2019-04-03T12:12:48.080Z,12.50
2019-04-03T12:15:20.085Z,11.83
2019-04-03T12:17:47.542Z,11.45
2019-04-03T12:20:18.288Z,11.65
2019-04-03T12:22:46.954Z,11.25
2019-04-03T12:25:16.158Z,11.20
2019-04-03T12:27:46.000Z,10.88
2019-04-03T12:30:16.218Z,10.72
2019-04-03T12:32:48.742Z,10.28
2019-04-03T12:35:15.815Z,10.32
2019-04-03T12:37:44.554Z,10.08
2019-04-03T12:40:14.209Z,10.80
2019-04-03T12:42:42.769Z,10.63
2019-04-03T12:45:12.069Z,9.50
2019-04-03T12:47:42.825Z,9.50
2019-04-03T12:50:14.056Z,8.95
2019-04-03T12:55:13.188Z,9.65
2019-04-03T12:57:41.870Z,8.18
2019-04-03T13:00:13.654Z,7.55
2019-04-03T13:02:43.296Z,7.58
2019-04-03T13:05:13.128Z,6.20
2019-04-03T13:07:41.730Z,6.00
2019-04-03T13:10:12.359Z,5.10
2019-04-03T13:12:41.312Z,4.40
2019-04-03T13:15:12.550Z,3.75
2019-04-03T13:17:43.830Z,3.60
2019-04-03T13:20:12.406Z,3.12
2019-04-03T13:22:42.543Z,3.05
2019-04-03T13:25:11.962Z,2.85
2019-04-03T13:27:40.748Z,2.98
2019-04-03T13:30:12.904Z,2.92
2019-04-03T13:32:41.908Z,3.15
2019-04-03T13:35:14.629Z,3.65
2019-04-03T13:37:42.208Z,3.90
2019-04-03T13:40:11.656Z,3.90
2019-04-03T13:42:40.259Z,3.55
2019-04-03T13:45:09.759Z,3.62
2019-04-03T13:47:41.074Z,3.72
2019-04-03T13:50:10.601Z,4.20
2019-04-03T13:52:43.184Z,4.40
2019-04-03T13:55:11.040Z,4.17
2019-04-03T13:57:39.731Z,3.80
2019-04-03T14:00:18.278Z,3.90
2019-04-03T14:02:40.131Z,3.58
2019-04-03T14:05:09.826Z,3.80
2019-04-03T14:07:41.498Z,4.08
2019-04-03T14:10:09.937Z,4.08
2019-04-03T14:12:43.095Z,4.10
2019-04-03T14:15:09.786Z,4.03
2019-04-03T14:17:38.720Z,3.12
2019-04-03T14:20:08.770Z,3.20
2019-04-03T14:22:37.532Z,3.30
2019-04-03T14:25:18.060Z,4.22
2019-04-03T14:27:37.692Z,3.92
2019-04-03T14:30:11.632Z,4.30
2019-04-03T14:32:44.274Z,4.20
2019-04-03T14:37:41.435Z,3.77
2019-04-03T14:40:12.341Z,3.45
2019-04-03T14:42:40.980Z,3.20
2019-04-03T14:45:13.431Z,3.50
2019-04-03T14:47:40.799Z,2.90
2019-04-03T14:50:10.195Z,3.08
2019-04-03T14:52:38.901Z,3.47
2019-04-03T14:55:18.658Z,3.60
2019-04-03T14:57:38.607Z,3.73
2019-04-03T15:00:24.595Z,3.72
2019-04-03T15:02:41.384Z,4.30
2019-04-03T15:05:10.791Z,4.20
2019-04-03T15:07:40.449Z,4.90
2019-04-03T15:10:12.796Z,5.78
2019-04-03T15:12:41.431Z,5.87
2019-04-03T15:15:11.967Z,6.67
2019-04-03T15:17:41.585Z,7.35
2019-04-03T15:20:12.379Z,8.10
2019-04-03T15:22:42.667Z,8.38
2019-04-03T15:25:12.902Z,9.25
2019-04-03T15:27:42.510Z,8.68
2019-04-03T15:30:12.927Z,8.90
2019-04-03T15:32:41.601Z,9.23
2019-04-03T15:35:10.704Z,9.40
2019-04-03T15:37:41.431Z,8.68
2019-04-03T15:40:10.268Z,8.93
2019-04-03T15:42:41.287Z,8.73
2019-04-03T15:45:10.490Z,9.00
2019-04-03T15:47:45.155Z,8.78
2019-04-03T15:50:10.678Z,9.13
2019-04-03T15:55:27.286Z,8.93
2019-04-03T15:58:07.096Z,8.75
2019-04-03T16:00:36.658Z,9.28
2019-04-03T16:03:06.098Z,9.53
2019-04-03T16:05:36.453Z,10.05
2019-04-03T16:08:05.794Z,9.88
2019-04-03T16:10:34.481Z,9.15
2019-04-03T16:13:03.552Z,9.75
2019-04-03T16:15:33.497Z,9.48
2019-04-03T16:18:09.066Z,9.88
2019-04-03T16:20:38.296Z,9.85
2019-04-03T16:23:07.081Z,9.55
2019-04-03T16:25:36.324Z,9.80
2019-04-03T16:28:05.712Z,9.40
2019-04-03T16:30:40.214Z,9.48
2019-04-03T16:33:19.857Z,8.78
2019-04-03T16:35:41.155Z,9.73
2019-04-03T16:38:15.022Z,9.35
2019-04-03T16:40:46.594Z,8.90
2019-04-03T16:43:16.794Z,9.38
2019-04-03T16:45:46.650Z,9.38
2019-04-03T16:48:17.913Z,9.78
2019-04-03T16:53:19.870Z,9.68
2019-04-03T16:55:48.457Z,8.80
2019-04-03T16:58:17.606Z,8.30
2019-04-03T17:00:47.335Z,8.13
2019-04-03T17:03:17.129Z,7.45
2019-04-03T17:05:47.507Z,7.80
2019-04-03T17:08:17.170Z,8.00
2019-04-03T17:10:46.367Z,8.38
2019-04-03T17:13:15.679Z,8.23
2019-04-03T17:15:46.883Z,8.20
2019-04-03T17:18:17.135Z,9.03
2019-04-03T17:20:49.469Z,9.03
2019-04-03T17:23:17.041Z,9.33
2019-04-03T17:25:50.098Z,9.68
2019-04-03T17:28:16.487Z,9.25
2019-04-03T17:30:45.911Z,9.60
2019-04-03T17:33:15.574Z,9.58
2019-04-03T17:35:47.158Z,10.20
2019-04-03T17:38:16.312Z,9.35
2019-04-03T17:40:45.420Z,10.45
2019-04-03T17:43:16.856Z,10.28
2019-04-03T17:45:46.549Z,10.65
2019-04-03T17:48:16.211Z,10.58
2019-04-03T17:50:45.449Z,11.48
2019-04-03T17:53:15.539Z,10.98
2019-04-03T17:55:46.556Z,10.80
2019-04-03T17:58:16.832Z,11.10
2019-04-03T18:00:46.163Z,11.93
2019-04-03T18:03:15.037Z,11.93
2019-04-03T18:05:43.825Z,12.10
2019-04-03T18:08:12.715Z,11.85
2019-04-03T18:10:42.579Z,11.10
2019-04-03T18:13:12.623Z,11.88
2019-04-03T18:15:41.336Z,11.63
2019-04-03T18:18:10.543Z,12.35
2019-04-03T18:20:39.605Z,11.93
2019-04-03T18:23:10.652Z,12.03
2019-04-03T18:25:38.862Z,11.88
2019-04-03T18:28:07.449Z,12.55
2019-04-03T18:30:36.119Z,12.58
2019-04-03T18:33:05.990Z,12.03
2019-04-03T18:35:34.956Z,12.33
2019-04-03T18:38:03.614Z,13.22
2019-04-03T18:40:32.204Z,13.48
2019-04-03T18:43:00.995Z,12.47
2019-04-03T18:45:29.676Z,13.00
2019-04-03T18:47:58.800Z,13.32
2019-04-03T18:50:27.571Z,13.48
2019-04-03T18:52:56.443Z,13.58
2019-04-03T18:55:24.989Z,13.60
2019-04-03T18:57:53.838Z,12.78
2019-04-03T19:00:23.609Z,13.48
2019-04-03T19:02:52.216Z,14.35
2019-04-03T19:05:21.234Z,14.75
2019-04-03T19:07:49.997Z,14.30
2019-04-03T19:10:18.906Z,13.85
2019-04-03T19:12:48.130Z,13.93
2019-04-03T19:15:16.833Z,15.13
2019-04-03T19:17:45.790Z,13.43
2019-04-03T19:20:15.074Z,14.70
2019-04-03T19:22:43.771Z,14.30
2019-04-03T19:25:12.677Z,14.78
2019-04-03T19:27:41.545Z,15.30
2019-04-03T19:30:10.430Z,14.80
2019-04-03T19:32:43.266Z,15.30
2019-04-03T19:35:13.774Z,15.65
2019-04-03T19:37:55.003Z,16.12
2019-04-03T19:40:24.182Z,16.05
2019-04-03T19:42:54.595Z,16.17
2019-04-03T19:45:26.240Z,15.72
2019-04-03T19:47:57.754Z,15.58
2019-04-03T19:50:36.377Z,16.23
2019-04-03T19:53:08.272Z,16.12
2019-04-03T19:55:37.042Z,16.90
2019-04-03T19:58:05.678Z,17.05
2019-04-03T20:00:36.617Z,16.90
2019-04-03T20:03:05.683Z,17.25
2019-04-03T20:05:34.435Z,18.32
2019-04-03T20:08:03.118Z,18.10
2019-04-03T20:10:33.874Z,19.05
2019-04-03T20:13:02.353Z,18.85
2019-04-03T20:15:31.432Z,18.95
2019-04-03T20:17:59.978Z,19.95
2019-04-03T20:20:31.601Z,20.97
2019-04-03T20:22:59.020Z,21.85
2019-04-03T20:25:27.587Z,21.17
2019-04-03T20:27:57.140Z,20.80
2019-04-03T20:30:26.003Z,20.62
2019-04-03T20:32:54.592Z,21.05
2019-04-03T20:35:23.377Z,22.60
2019-04-03T20:37:52.068Z,23.20
2019-04-03T20:40:20.614Z,22.77
2019-04-03T20:42:49.240Z,26.52
2019-04-03T20:45:19.151Z,27.73
2019-04-03T20:47:48.550Z,28.07
2019-04-03T20:50:19.490Z,28.60
2019-04-03T20:52:48.588Z,27.30
2019-04-03T20:55:17.172Z,28.62
2019-04-03T20:57:55.570Z,27.70
2019-04-03T21:00:19.991Z,28.23
2019-04-03T21:02:48.666Z,29.05
2019-04-03T21:05:18.583Z,26.80
2019-04-03T21:07:49.056Z,30.43
2019-04-03T21:10:17.681Z,30.17
2019-04-03T21:12:46.374Z,29.42
2019-04-03T21:15:15.373Z,30.32
2019-04-03T21:17:43.949Z,30.50
2019-04-03T21:20:12.732Z,32.08
2019-04-03T21:22:47.910Z,31.87
2019-04-03T21:25:16.547Z,32.23
2019-04-03T21:27:45.143Z,31.68
2019-04-03T21:30:14.054Z,31.48
2019-04-03T21:32:42.583Z,32.88
2019-04-03T21:35:11.507Z,31.95
2019-04-03T21:37:40.705Z,32.93
2019-04-03T21:40:10.211Z,32.50
2019-04-03T21:42:38.791Z,33.55
2019-04-03T21:45:08.337Z,34.35
2019-04-03T21:47:37.012Z,33.13
2019-04-03T21:50:07.823Z,34.58
2019-04-03T21:52:36.629Z,33.92
2019-04-03T21:55:07.340Z,35.23
2019-04-03T21:57:38.439Z,33.33
2019-04-03T22:00:08.599Z,32.90
2019-04-03T22:02:37.157Z,34.03
2019-04-03T22:05:08.235Z,33.98
2019-04-03T22:07:37.018Z,34.40
2019-04-03T22:10:09.064Z,35.52
2019-04-03T22:12:38.006Z,33.67
2019-04-03T22:15:08.297Z,35.98
2019-04-03T22:17:36.833Z,34.75
2019-04-03T22:20:06.998Z,35.05
2019-04-03T22:22:35.583Z,35.40
2019-04-03T22:25:04.774Z,35.40
2019-04-03T22:27:33.578Z,36.10
2019-04-03T22:30:02.469Z,37.38
2019-04-03T22:32:31.010Z,34.45
2019-04-03T22:35:03.016Z,33.98
2019-04-03T22:39:59.968Z,33.35
2019-04-03T22:42:28.533Z,35.70
2019-04-03T22:44:57.349Z,34.25
2019-04-03T22:47:26.450Z,36.15
2019-04-03T22:49:55.230Z,36.35
2019-04-03T22:52:24.147Z,36.75
2019-04-03T22:54:52.674Z,36.73
2019-04-03T22:57:21.214Z,37.30
2019-04-03T22:59:49.982Z,37.03
2019-04-03T23:02:18.531Z,38.17
2019-04-03T23:04:47.349Z,39.63
2019-04-03T23:07:16.039Z,39.83
2019-04-03T23:09:44.628Z,39.63
2019-04-03T23:12:13.215Z,39.35
2019-04-03T23:14:41.989Z,39.42
2019-04-03T23:17:11.981Z,39.63
2019-04-03T23:19:41.312Z,39.78
2019-04-03T23:22:10.320Z,39.73
2019-04-03T23:24:38.984Z,39.23
2019-04-03T23:27:07.578Z,42.25
2019-04-03T23:29:36.817Z,40.65
2019-04-03T23:32:05.452Z,40.60
2019-04-03T23:34:34.094Z,40.63
2019-04-03T23:37:02.839Z,40.83
2019-04-03T23:39:31.721Z,46.70
2019-04-03T23:42:00.515Z,52.80
2019-04-03T23:44:29.506Z,52.40
2019-04-03T23:46:58.091Z,52.30
2019-04-03T23:49:26.876Z,50.30
2019-04-03T23:51:58.619Z,46.75
2019-04-03T23:54:26.268Z,36.13
2019-04-03T23:56:54.769Z,34.25
2019-04-03T23:59:25.749Z,32.80
